Weather at Miami Executive Airport

Public forecast

Using degrees Fahrenheit for public forecast. Weather courtesy of forecast.io.

Current aviation weather report (METAR) for Miami Executive Airport

2024/07/14 16:53 (retrieved 21 minutes ago)

KTMB 141653Z 10014G21KT 10SM FEW075 34/26 A3013 RMK AO2 SLP201 T03390256

Aviation forecast (TAF) for Miami Executive Airport

2024/07/14 15:54 Ammendment (retrieved 1 hour ago)

TAF AMD KTMB 141453Z 1415/1512 09010KT P6SM VCSH SCT025 BKN060 TEMPO 1415/1417 VRB15KT 6SM -SHRA BKN025 FM141700 10011KT P6SM VCTS SCT025CB BKN050 FM142200 09008KT P6SM FEW025 SCT250